Time,TemperatureF,DewpointF,PressureIn,WindDirection,WindDirectionDegrees,WindSpeedMPH,WindSpeedGustMPH,Humidity,HourlyPrecipIn,Conditions,Clouds,dailyrainin,SoftwareType,DateUTC
2013-07-29 00:09:00,58.1,53.3,30.07,WSW,254,0.0,0.0,84,0.00,,,0.00,Wunderground v.1.15,2013-07-29 04:09:00,
2013-07-29 00:19:00,57.8,53.0,30.08,WSW,254,0.0,0.0,84,0.00,,,0.00,Wunderground v.1.15,2013-07-29 04:19:00,
2013-07-29 00:29:00,57.5,53.0,30.08,WSW,254,0.0,0.0,85,0.00,,,0.00,Wunderground v.1.15,2013-07-29 04:29:00,
2013-07-29 00:39:00,57.0,52.9,30.08,WSW,254,0.0,0.0,86,0.00,,,0.00,Wunderground v.1.15,2013-07-29 04:39:00,
2013-07-29 00:49:00,56.6,52.5,30.08,WSW,254,0.0,0.0,86,0.00,,,0.00,Wunderground v.1.15,2013-07-29 04:49:00,
2013-07-29 00:59:00,56.2,52.4,30.08,WSW,254,0.0,0.0,87,0.00,,,0.00,Wunderground v.1.15,2013-07-29 04:59:00,
2013-07-29 01:09:00,55.8,52.3,30.08,WSW,254,0.0,0.0,88,0.00,,,0.00,Wunderground v.1.15,2013-07-29 05:09:00,
2013-07-29 01:19:00,55.5,52.3,30.08,WSW,254,0.0,0.0,89,0.00,,,0.00,Wunderground v.1.15,2013-07-29 05:19:00,
2013-07-29 01:29:00,55.3,52.1,30.08,WSW,254,0.0,0.0,89,0.00,,,0.00,Wunderground v.1.15,2013-07-29 05:29:00,
2013-07-29 01:39:00,55.2,52.0,30.08,WSW,254,0.0,0.0,89,0.00,,,0.00,Wunderground v.1.15,2013-07-29 05:39:00,
2013-07-29 01:44:00,55.1,51.9,30.08,WSW,254,0.0,0.0,89,0.00,,,0.00,Wunderground v.1.15,2013-07-29 05:44:00,
2013-07-29 01:59:00,54.9,52.0,30.08,WSW,254,0.0,0.0,90,0.00,,,0.00,Wunderground v.1.15,2013-07-29 05:59:00,
2013-07-29 02:09:00,54.8,51.9,30.08,WSW,254,0.0,0.0,90,0.00,,,0.00,Wunderground v.1.15,2013-07-29 06:09:00,
2013-07-29 02:19:00,54.6,51.7,30.08,WSW,254,0.0,0.0,90,0.00,,,0.00,Wunderground v.1.15,2013-07-29 06:19:00,
2013-07-29 02:24:00,54.6,51.7,30.08,WSW,254,0.0,0.0,90,0.00,,,0.00,Wunderground v.1.15,2013-07-29 06:24:00,
2013-07-29 02:29:00,54.5,51.6,30.08,WSW,254,0.0,0.0,90,0.00,,,0.00,Wunderground v.1.15,2013-07-29 06:29:00,
2013-07-29 02:39:00,54.6,52.0,30.08,WSW,254,0.0,0.0,91,0.00,,,0.00,Wunderground v.1.15,2013-07-29 06:39:00,
2013-07-29 02:49:00,54.3,51.7,30.08,WSW,254,0.0,0.0,91,0.00,,,0.00,Wunderground v.1.15,2013-07-29 06:49:00,
2013-07-29 02:59:00,54.2,51.6,30.08,WSW,254,0.0,0.0,91,0.00,,,0.00,Wunderground v.1.15,2013-07-29 06:59:00,
2013-07-29 03:09:00,54.1,51.5,30.08,WSW,254,0.0,0.0,91,0.00,,,0.00,Wunderground v.1.15,2013-07-29 07:09:00,
2013-07-29 03:19:00,54.2,51.9,30.08,WSW,254,0.0,0.0,92,0.00,,,0.00,Wunderground v.1.15,2013-07-29 07:19:00,
2013-07-29 03:24:00,54.1,51.8,30.08,WSW,254,0.0,0.0,92,0.00,,,0.00,Wunderground v.1.15,2013-07-29 07:24:00,
2013-07-29 03:39:00,53.7,51.4,30.08,WSW,254,0.0,0.0,92,0.00,,,0.00,Wunderground v.1.15,2013-07-29 07:39:00,
2013-07-29 03:49:00,53.5,51.2,30.09,WSW,254,0.0,0.0,92,0.00,,,0.00,Wunderground v.1.15,2013-07-29 07:49:00,
2013-07-29 03:59:00,53.3,51.0,30.09,WSW,254,0.0,0.0,92,0.00,,,0.00,Wunderground v.1.15,2013-07-29 07:59:00,
2013-07-29 04:04:00,53.4,51.1,30.09,WSW,254,0.0,0.0,92,0.00,,,0.00,Wunderground v.1.15,2013-07-29 08:04:00,
2013-07-29 04:19:00,53.7,51.4,30.09,WSW,254,0.0,0.0,92,0.00,,,0.00,Wunderground v.1.15,2013-07-29 08:19:00,
2013-07-29 04:29:00,53.9,51.3,30.09,WSW,254,0.0,0.0,91,0.00,,,0.00,Wunderground v.1.15,2013-07-29 08:29:00,
2013-07-29 04:39:00,54.1,51.5,30.09,WSW,254,0.0,0.0,91,0.00,,,0.00,Wunderground v.1.15,2013-07-29 08:39:00,
2013-07-29 04:44:00,54.1,51.5,30.10,WSW,254,0.0,0.0,91,0.00,,,0.00,Wunderground v.1.15,2013-07-29 08:44:00,
2013-07-29 04:59:00,54.1,51.5,30.10,WSW,254,0.0,0.0,91,0.00,,,0.00,Wunderground v.1.15,2013-07-29 08:59:00,
2013-07-29 05:09:00,54.1,51.5,30.10,WSW,254,0.0,0.0,91,0.00,,,0.00,Wunderground v.1.15,2013-07-29 09:09:00,
2013-07-29 05:19:00,54.0,51.4,30.10,WSW,254,0.0,0.0,91,0.00,,,0.00,Wunderground v.1.15,2013-07-29 09:19:00,
2013-07-29 05:29:00,54.0,51.4,30.10,WSW,254,0.0,0.0,91,0.00,,,0.00,Wunderground v.1.15,2013-07-29 09:29:00,
2013-07-29 05:39:00,54.0,51.4,30.10,WSW,254,0.0,0.0,91,0.00,,,0.00,Wunderground v.1.15,2013-07-29 09:39:00,
2013-07-29 05:49:00,54.2,51.6,30.10,WSW,254,0.0,0.0,91,0.00,,,0.00,Wunderground v.1.15,2013-07-29 09:49:00,
2013-07-29 05:59:00,54.2,51.6,30.11,WSW,254,0.0,0.0,91,0.00,,,0.00,Wunderground v.1.15,2013-07-29 09:59:00,
2013-07-29 06:14:00,54.2,51.6,30.11,WSW,254,0.0,0.0,91,0.00,,,0.00,Wunderground v.1.15,2013-07-29 10:14:00,
2013-07-29 06:29:00,54.5,51.9,30.11,WSW,254,0.0,0.0,91,0.00,,,0.00,Wunderground v.1.15,2013-07-29 10:29:00,
2013-07-29 06:39:00,55.1,52.2,30.11,WSW,254,0.0,0.0,90,0.00,,,0.00,Wunderground v.1.15,2013-07-29 10:39:00,
2013-07-29 06:49:00,55.5,52.6,30.11,WSW,254,0.0,0.0,90,0.00,,,0.00,Wunderground v.1.15,2013-07-29 10:49:00,
2013-07-29 06:59:00,55.9,53.0,30.12,WSW,254,0.0,0.0,90,0.00,,,0.00,Wunderground v.1.15,2013-07-29 10:59:00,
2013-07-29 07:04:00,56.2,53.3,30.12,WSW,254,0.0,0.0,90,0.00,,,0.00,Wunderground v.1.15,2013-07-29 11:04:00,
2013-07-29 07:19:00,56.7,53.5,30.13,WSW,254,0.0,0.0,89,0.00,,,0.00,Wunderground v.1.15,2013-07-29 11:19:00,
2013-07-29 07:29:00,57.0,53.8,30.13,WSW,254,0.0,0.0,89,0.00,,,0.00,Wunderground v.1.15,2013-07-29 11:29:00,
2013-07-29 07:39:00,57.2,54.0,30.13,WSW,254,0.0,0.0,89,0.00,,,0.00,Wunderground v.1.15,2013-07-29 11:39:00,
2013-07-29 07:49:00,57.5,54.3,30.13,WSW,250,0.0,0.0,89,0.00,,,0.00,Wunderground v.1.15,2013-07-29 11:49:00,
2013-07-29 07:54:00,57.8,54.6,30.13,WSW,250,0.0,0.0,89,0.00,,,0.00,Wunderground v.1.15,2013-07-29 11:54:00,
2013-07-29 08:09:00,59.4,55.5,30.13,WSW,251,0.0,0.0,87,0.00,,,0.00,Wunderground v.1.15,2013-07-29 12:09:00,
2013-07-29 08:19:00,60.4,56.2,30.13,WSW,251,0.0,2.0,86,0.00,,,0.00,Wunderground v.1.15,2013-07-29 12:19:00,
2013-07-29 08:29:00,61.5,56.6,30.13,WSW,251,0.0,1.0,84,0.00,,,0.00,Wunderground v.1.15,2013-07-29 12:29:00,
2013-07-29 08:39:00,62.5,57.3,30.14,WSW,251,1.0,1.0,83,0.00,,,0.00,Wunderground v.1.15,2013-07-29 12:39:00,
2013-07-29 08:44:00,62.7,57.1,30.14,WSW,251,1.0,3.0,82,0.00,,,0.00,Wunderground v.1.15,2013-07-29 12:44:00,
2013-07-29 08:59:00,63.2,56.9,30.14,West,271,2.0,5.0,80,0.00,,,0.00,Wunderground v.1.15,2013-07-29 12:59:00,
2013-07-29 09:09:00,63.8,57.9,30.14,West,266,2.0,2.0,81,0.00,,,0.00,Wunderground v.1.15,2013-07-29 13:09:00,
2013-07-29 09:19:00,64.3,58.0,30.15,West,267,2.0,4.0,80,0.00,,,0.00,Wunderground v.1.15,2013-07-29 13:19:00,
2013-07-29 09:29:00,64.7,57.7,30.15,WSW,248,2.0,2.0,78,0.00,,,0.00,Wunderground v.1.15,2013-07-29 13:29:00,
2013-07-29 09:39:00,65.4,58.7,30.15,WSW,253,2.0,2.0,79,0.00,,,0.00,Wunderground v.1.15,2013-07-29 13:39:00,
2013-07-29 09:59:00,66.5,58.3,30.15,WSW,257,2.0,2.0,75,0.00,,,0.00,Wunderground v.1.15,2013-07-29 13:59:00,
2013-07-29 10:19:00,67.5,58.2,30.15,SW,232,2.0,2.0,72,0.00,,,0.00,Wunderground v.1.15,2013-07-29 14:19:00,
2013-07-29 10:29:00,67.9,59.3,30.15,NW,305,3.0,3.0,74,0.00,,,0.00,Wunderground v.1.15,2013-07-29 14:29:00,
2013-07-29 10:39:00,68.8,59.4,30.16,West,271,2.0,3.0,72,0.00,,,0.00,Wunderground v.1.15,2013-07-29 14:39:00,
2013-07-29 10:49:00,69.2,59.8,30.15,SW,236,2.0,2.0,72,0.00,,,0.00,Wunderground v.1.15,2013-07-29 14:49:00,
2013-07-29 10:59:00,69.7,58.7,30.16,SW,228,3.0,3.0,68,0.00,,,0.00,Wunderground v.1.15,2013-07-29 14:59:00,
2013-07-29 11:09:00,69.9,58.4,30.16,WNW,290,3.0,7.0,67,0.00,,,0.00,Wunderground v.1.15,2013-07-29 15:09:00,
2013-07-29 11:19:00,70.0,58.5,30.16,West,274,4.0,4.0,67,0.00,,,0.00,Wunderground v.1.15,2013-07-29 15:19:00,
2013-07-29 11:49:00,70.8,57.1,30.16,WNW,302,4.0,8.0,62,0.00,,,0.00,Wunderground v.1.15,2013-07-29 15:49:00,
2013-07-29 11:59:00,70.7,56.6,30.17,West,259,6.0,6.0,61,0.00,,,0.00,Wunderground v.1.15,2013-07-29 15:59:00,
2013-07-29 12:09:00,71.1,57.0,30.16,NW,323,3.0,6.0,61,0.00,,,0.00,Wunderground v.1.15,2013-07-29 16:09:00,
2013-07-29 12:19:00,71.6,57.4,30.17,WNW,292,5.0,7.0,61,0.00,,,0.00,Wunderground v.1.15,2013-07-29 16:19:00,
2013-07-29 12:29:00,70.9,56.3,30.17,West,259,4.0,7.0,60,0.00,,,0.00,Wunderground v.1.15,2013-07-29 16:29:00,
2013-07-29 12:39:00,71.5,56.9,30.17,West,272,5.0,5.0,60,0.00,,,0.00,Wunderground v.1.15,2013-07-29 16:39:00,
2013-07-29 12:59:00,71.8,57.2,30.17,North,355,4.0,4.0,60,0.00,,,0.00,Wunderground v.1.15,2013-07-29 16:59:00,
2013-07-29 13:19:00,72.2,58.0,30.17,West,280,5.0,5.0,61,0.00,,,0.00,Wunderground v.1.15,2013-07-29 17:19:00,
2013-07-29 13:29:00,72.8,57.6,30.16,WNW,292,4.0,4.0,59,0.00,,,0.00,Wunderground v.1.15,2013-07-29 17:29:00,
2013-07-29 13:44:00,72.2,56.1,30.16,NW,306,5.0,7.0,57,0.00,,,0.00,Wunderground v.1.15,2013-07-29 17:44:00,
2013-07-29 13:59:00,72.7,56.1,30.16,NW,306,4.0,4.0,56,0.00,,,0.00,Wunderground v.1.15,2013-07-29 17:59:00,
2013-07-29 14:09:00,72.2,58.0,30.17,WSW,250,5.0,6.0,61,0.00,,,0.00,Wunderground v.1.15,2013-07-29 18:09:00,
2013-07-29 14:19:00,72.9,58.7,30.17,SSW,192,4.0,6.0,61,0.00,,,0.00,Wunderground v.1.15,2013-07-29 18:19:00,
2013-07-29 14:29:00,72.4,57.7,30.16,WSW,252,3.0,3.0,60,0.00,,,0.00,Wunderground v.1.15,2013-07-29 18:29:00,
2013-07-29 14:39:00,72.6,57.4,30.17,WNW,294,4.0,4.0,59,0.00,,,0.00,Wunderground v.1.15,2013-07-29 18:39:00,
2013-07-29 14:49:00,72.3,59.4,30.16,WSW,241,3.0,3.0,64,0.00,,,0.00,Wunderground v.1.15,2013-07-29 18:49:00,
2013-07-29 14:59:00,72.9,59.1,30.16,SW,222,3.0,3.0,62,0.00,,,0.00,Wunderground v.1.15,2013-07-29 18:59:00,
2013-07-29 15:04:00,73.1,58.4,30.16,NNW,334,4.0,5.0,60,0.00,,,0.00,Wunderground v.1.15,2013-07-29 19:04:00,
2013-07-29 15:19:00,73.9,57.7,30.16,West,273,4.0,4.0,57,0.00,,,0.00,Wunderground v.1.15,2013-07-29 19:19:00,
2013-07-29 15:24:00,73.8,57.6,30.16,WNW,300,4.0,7.0,57,0.00,,,0.00,Wunderground v.1.15,2013-07-29 19:24:00,
2013-07-29 15:39:00,74.3,60.0,30.16,WSW,254,4.0,4.0,61,0.00,,,0.00,Wunderground v.1.15,2013-07-29 19:39:00,
2013-07-29 15:49:00,74.6,58.4,30.15,SSW,213,4.0,4.0,57,0.00,,,0.00,Wunderground v.1.15,2013-07-29 19:49:00,
2013-07-29 16:09:00,74.7,58.0,30.15,NNW,341,4.0,4.0,56,0.00,,,0.00,Wunderground v.1.15,2013-07-29 20:09:00,
2013-07-29 16:19:00,74.8,58.1,30.15,West,271,3.0,3.0,56,0.00,,,0.00,Wunderground v.1.15,2013-07-29 20:19:00,
2013-07-29 16:39:00,74.7,58.0,30.15,WNW,302,2.0,4.0,56,0.00,,,0.00,Wunderground v.1.15,2013-07-29 20:39:00,
2013-07-29 16:44:00,74.7,58.9,30.15,West,281,2.0,5.0,58,0.00,,,0.00,Wunderground v.1.15,2013-07-29 20:44:00,
2013-07-29 16:59:00,75.0,58.7,30.15,SW,221,4.0,4.0,57,0.00,,,0.00,Wunderground v.1.15,2013-07-29 20:59:00,
2013-07-29 17:09:00,75.2,57.4,30.15,West,273,3.0,4.0,54,0.00,,,0.00,Wunderground v.1.15,2013-07-29 21:09:00,
2013-07-29 17:19:00,75.1,57.8,30.16,West,262,3.0,3.0,55,0.00,,,0.00,Wunderground v.1.15,2013-07-29 21:19:00,
2013-07-29 17:29:00,75.3,60.5,30.15,West,262,1.0,1.0,60,0.00,,,0.00,Wunderground v.1.15,2013-07-29 21:29:00,
2013-07-29 17:39:00,76.2,58.9,30.15,SW,234,2.0,5.0,55,0.00,,,0.00,Wunderground v.1.15,2013-07-29 21:39:00,
2013-07-29 17:49:00,76.0,59.7,30.15,WNW,298,2.0,3.0,57,0.00,,,0.00,Wunderground v.1.15,2013-07-29 21:49:00,
2013-07-29 17:59:00,75.7,58.4,30.16,West,277,2.0,5.0,55,0.00,,,0.00,Wunderground v.1.15,2013-07-29 21:59:00,
2013-07-29 18:29:00,74.5,58.3,30.17,WSW,251,3.0,3.0,57,0.00,,,0.00,Wunderground v.1.15,2013-07-29 22:29:00,
2013-07-29 18:59:00,74.6,58.8,30.17,WNW,298,1.0,1.0,58,0.00,,,0.00,Wunderground v.1.15,2013-07-29 22:59:00,
2013-07-29 19:09:00,74.8,59.5,30.17,WNW,298,1.0,1.0,59,0.00,,,0.00,Wunderground v.1.15,2013-07-29 23:09:00,
2013-07-29 19:19:00,75.3,58.0,30.17,WNW,298,1.0,1.0,55,0.00,,,0.00,Wunderground v.1.15,2013-07-29 23:19:00,
2013-07-29 19:29:00,75.5,59.2,30.17,WNW,298,0.0,0.0,57,0.00,,,0.00,Wunderground v.1.15,2013-07-29 23:29:00,
2013-07-29 19:49:00,74.4,59.1,30.18,WNW,298,0.0,0.0,59,0.00,,,0.00,Wunderground v.1.15,2013-07-29 23:49:00,
2013-07-29 19:59:00,73.6,60.7,30.18,WNW,298,0.0,0.0,64,0.00,,,0.00,Wunderground v.1.15,2013-07-29 23:59:00,
2013-07-29 20:09:00,72.4,59.5,30.18,NNE,19,0.0,0.0,64,0.00,,,0.00,Wunderground v.1.15,2013-07-30 00:09:00,
2013-07-29 20:24:00,70.2,59.6,30.18,NNE,19,0.0,0.0,69,0.00,,,0.00,Wunderground v.1.15,2013-07-30 00:24:00,
2013-07-29 20:34:00,69.0,59.6,30.18,NNE,19,0.0,0.0,72,0.00,,,0.00,Wunderground v.1.15,2013-07-30 00:34:00,
2013-07-29 20:44:00,68.0,59.4,30.18,NNE,19,0.0,0.0,74,0.00,,,0.00,Wunderground v.1.15,2013-07-30 00:44:00,
2013-07-29 20:59:00,66.5,59.1,30.18,NNE,19,0.0,0.0,77,0.00,,,0.00,Wunderground v.1.15,2013-07-30 00:59:00,
2013-07-29 21:09:00,65.6,58.6,30.18,NNE,19,0.0,0.0,78,0.00,,,0.00,Wunderground v.1.15,2013-07-30 01:09:00,
2013-07-29 21:19:00,64.5,58.5,30.18,NNE,19,0.0,0.0,81,0.00,,,0.00,Wunderground v.1.15,2013-07-30 01:19:00,
2013-07-29 21:29:00,63.8,58.5,30.18,NNE,19,0.0,0.0,83,0.00,,,0.00,Wunderground v.1.15,2013-07-30 01:29:00,
2013-07-29 21:39:00,63.1,58.5,30.18,NNE,19,0.0,0.0,85,0.00,,,0.00,Wunderground v.1.15,2013-07-30 01:39:00,
2013-07-29 21:49:00,62.6,58.7,30.18,NNE,19,0.0,0.0,87,0.00,,,0.00,Wunderground v.1.15,2013-07-30 01:49:00,
2013-07-29 21:59:00,62.2,58.3,30.19,NNE,19,0.0,0.0,87,0.00,,,0.00,Wunderground v.1.15,2013-07-30 01:59:00,
2013-07-29 22:09:00,61.6,57.4,30.19,NNE,19,0.0,0.0,86,0.00,,,0.00,Wunderground v.1.15,2013-07-30 02:09:00,
2013-07-29 22:24:00,60.9,57.3,30.19,NNE,19,0.0,0.0,88,0.00,,,0.00,Wunderground v.1.15,2013-07-30 02:24:00,
2013-07-29 22:34:00,60.9,57.9,30.19,NNE,19,0.0,0.0,90,0.00,,,0.00,Wunderground v.1.15,2013-07-30 02:34:00,
2013-07-29 22:49:00,60.2,56.9,30.19,NNE,19,0.0,0.0,89,0.00,,,0.00,Wunderground v.1.15,2013-07-30 02:49:00,
2013-07-29 22:59:00,59.8,56.9,30.19,NNE,19,0.0,0.0,90,0.00,,,0.00,Wunderground v.1.15,2013-07-30 02:59:00,
2013-07-29 23:04:00,59.6,56.7,30.19,NNE,19,0.0,0.0,90,0.00,,,0.00,Wunderground v.1.15,2013-07-30 03:04:00,
2013-07-29 23:19:00,59.3,56.7,30.19,NNE,19,0.0,0.0,91,0.00,,,0.00,Wunderground v.1.15,2013-07-30 03:19:00,
2013-07-29 23:29:00,59.3,56.7,30.20,NNE,19,0.0,0.0,91,0.00,,,0.00,Wunderground v.1.15,2013-07-30 03:29:00,
2013-07-29 23:39:00,58.9,56.3,30.20,NNE,19,0.0,0.0,91,0.00,,,0.00,Wunderground v.1.15,2013-07-30 03:39:00,
2013-07-29 23:59:00,58.1,55.5,30.20,NNE,19,0.0,0.0,91,0.00,,,0.00,Wunderground v.1.15,2013-07-30 03:59:00,